Time;durP1;ratioP1;P1;durP2;ratioP2;P2;SDS_P1;SDS_P2;PMS_P1;PMS_P2;Temp;Humidity;BMP_temperature;BMP_pressure;BME280_temperature;BME280_humidity;BME280_pressure;Samples;Min_cycle;Max_cycle;Signal;HPM_P1;HPM_P2
2021/05/28 04:12:39;;;;;;;0.60;0.60;;;12.60;99.90;;;;;;4933936;29;20213;-71
2021/05/28 04:15:09;;;;;;;0.60;0.60;;;12.60;99.90;;;;;;4934837;29;20211;-70
2021/05/28 04:17:38;;;;;;;0.60;0.60;;;12.50;99.90;;;;;;4935465;29;20225;-72
2021/05/28 04:20:07;;;;;;;0.60;0.60;;;12.40;99.90;;;;;;4935471;29;20210;-70
2021/05/28 04:22:34;;;;;;;0.60;0.60;;;12.20;99.90;;;;;;4935325;29;20264;-70
2021/05/28 04:25:02;;;;;;;0.70;0.70;;;12.10;99.90;;;;;;4981957;23;20307;-75
2021/05/28 04:27:30;;;;;;;0.50;0.50;;;12.00;99.90;;;;;;4974088;28;20204;-74
2021/05/28 04:29:58;;;;;;;0.70;0.70;;;11.90;99.90;;;;;;4973662;28;20575;-75
2021/05/28 04:32:25;;;;;;;0.70;0.70;;;11.90;99.90;;;;;;4973853;28;20235;-74
2021/05/28 04:34:53;;;;;;;0.70;0.70;;;11.90;99.90;;;;;;4973680;28;20313;-74
2021/05/28 04:37:20;;;;;;;0.70;0.70;;;12.00;99.90;;;;;;4973146;28;20621;-75
2021/05/28 04:39:47;;;;;;;0.65;0.65;;;12.00;99.90;;;;;;4973549;28;20244;-76
2021/05/28 04:42:15;;;;;;;0.60;0.60;;;12.00;99.90;;;;;;4969719;28;20205;-75
2021/05/28 04:44:42;;;;;;;0.68;0.68;;;12.00;99.90;;;;;;4973331;28;20224;-74
2021/05/28 04:47:10;;;;;;;0.70;0.70;;;12.10;99.90;;;;;;4973504;28;20641;-76
2021/05/28 04:49:38;;;;;;;0.70;0.70;;;12.10;99.90;;;;;;4973008;28;20251;-75
2021/05/28 04:52:05;;;;;;;0.70;0.70;;;12.10;99.90;;;;;;4973648;28;20543;-74
2021/05/28 04:54:33;;;;;;;0.70;0.70;;;12.30;99.90;;;;;;4973383;28;20248;-74
2021/05/28 04:57:00;;;;;;;0.50;0.50;;;12.20;99.90;;;;;;4973216;28;20551;-74
2021/05/28 04:59:27;;;;;;;0.70;0.70;;;12.20;99.90;;;;;;4973641;28;20208;-73
2021/05/28 05:01:55;;;;;;;0.60;0.60;;;12.20;99.90;;;;;;4972410;28;20596;-74
2021/05/28 05:04:24;;;;;;;0.68;0.68;;;12.30;99.90;;;;;;4972649;28;20263;-74
2021/05/28 05:06:51;;;;;;;0.70;0.70;;;12.20;99.90;;;;;;4972222;28;20661;-74
2021/05/28 05:09:18;;;;;;;0.63;0.63;;;12.30;99.90;;;;;;4973529;28;20205;-75
2021/05/28 05:11:45;;;;;;;0.70;0.70;;;12.20;99.90;;;;;;4972540;28;20204;-75
2021/05/28 05:14:13;;;;;;;0.60;0.60;;;12.20;99.90;;;;;;4973160;28;20786;-74
2021/05/28 05:16:40;;;;;;;0.60;0.60;;;12.00;99.90;;;;;;4971480;28;20224;-75
2021/05/28 05:19:11;;;;;;;0.70;0.70;;;11.90;99.90;;;;;;4973556;28;20191;-75
2021/05/28 05:21:39;;;;;;;0.70;0.70;;;12.00;99.90;;;;;;4969232;28;20251;-75
2021/05/28 05:24:09;;;;;;;0.60;0.60;;;12.00;99.90;;;;;;4972544;28;20298;-75
2021/05/28 05:26:36;;;;;;;0.60;0.60;;;12.00;99.90;;;;;;4973904;28;20204;-74
2021/05/28 05:29:04;;;;;;;0.70;0.70;;;12.10;99.90;;;;;;4977362;28;20243;-74
2021/05/28 05:31:31;;;;;;;0.70;0.70;;;12.10;99.90;;;;;;4976724;28;20736;-75
2021/05/28 05:33:59;;;;;;;0.70;0.70;;;12.10;99.90;;;;;;4976947;28;20279;-76
2021/05/28 05:36:27;;;;;;;0.70;0.70;;;12.10;99.90;;;;;;4976376;28;20673;-75
2021/05/28 05:38:55;;;;;;;0.73;0.73;;;12.20;99.90;;;;;;4976792;28;20200;-75
2021/05/28 05:41:25;;;;;;;0.60;0.60;;;12.20;99.90;;;;;;4976493;28;20629;-75
2021/05/28 05:43:52;;;;;;;0.50;0.50;;;12.30;99.90;;;;;;4976393;28;20255;-75
2021/05/28 05:46:20;;;;;;;0.60;0.60;;;12.30;99.90;;;;;;4976294;28;20699;-74
2021/05/28 05:48:47;;;;;;;0.60;0.60;;;12.30;99.90;;;;;;4976753;28;20616;-76
2021/05/28 05:51:14;;;;;;;0.60;0.60;;;12.30;99.90;;;;;;4976552;28;20209;-75
2021/05/28 05:53:42;;;;;;;0.52;0.52;;;12.10;99.90;;;;;;4976597;28;20697;-75
2021/05/28 05:56:10;;;;;;;0.70;0.70;;;12.10;99.90;;;;;;4975983;28;20252;-77
2021/05/28 05:58:38;;;;;;;0.70;0.70;;;11.70;99.90;;;;;;4976534;28;20255;-76
2021/05/28 06:01:05;;;;;;;0.70;0.70;;;11.60;99.90;;;;;;4976420;28;20649;-77
2021/05/28 06:03:33;;;;;;;0.70;0.70;;;11.50;99.90;;;;;;4976515;28;20229;-75
2021/05/28 06:06:01;;;;;;;0.77;0.77;;;11.40;99.90;;;;;;4976174;28;20220;-75
2021/05/28 06:08:28;;;;;;;0.60;0.60;;;11.40;99.90;;;;;;4976198;28;20208;-75
2021/05/28 06:10:55;;;;;;;0.70;0.70;;;11.40;99.90;;;;;;4976025;28;20205;-75
2021/05/28 06:13:23;;;;;;;0.70;0.70;;;11.50;99.90;;;;;;4976209;28;20224;-76
2021/05/28 06:15:51;;;;;;;0.60;0.60;;;11.50;99.90;;;;;;4976088;28;20228;-74
2021/05/28 06:18:19;;;;;;;0.60;0.60;;;11.50;99.90;;;;;;4975939;28;20259;-75
2021/05/28 06:20:46;;;;;;;0.70;0.70;;;11.80;99.90;;;;;;4975868;28;20204;-75
2021/05/28 06:23:14;;;;;;;0.60;0.60;;;12.10;99.90;;;;;;4975601;28;20201;-75
2021/05/28 06:25:44;;;;;;;0.60;0.60;;;12.00;99.90;;;;;;4975538;28;20208;-74
2021/05/28 06:28:12;;;;;;;0.60;0.60;;;12.10;99.90;;;;;;4975741;28;20586;-74
2021/05/28 06:30:40;;;;;;;0.70;0.70;;;12.20;99.90;;;;;;4976338;28;20205;-74
2021/05/28 06:33:08;;;;;;;0.60;0.60;;;12.10;99.90;;;;;;4977038;28;20244;-74
2021/05/28 06:35:37;;;;;;;0.70;0.70;;;12.00;99.90;;;;;;4976016;28;20204;-75
2021/05/28 06:38:05;;;;;;;0.68;0.68;;;12.10;99.90;;;;;;4974822;28;20267;-74
2021/05/28 06:40:33;;;;;;;0.75;0.75;;;12.10;99.90;;;;;;4975664;28;20259;-74
2021/05/28 06:43:00;;;;;;;0.63;0.63;;;12.10;99.90;;;;;;4975314;28;20204;-75
2021/05/28 06:45:27;;;;;;;0.60;0.60;;;12.20;99.90;;;;;;4975381;28;20205;-75
2021/05/28 06:47:56;;;;;;;0.63;0.63;;;12.50;99.90;;;;;;4975530;28;20259;-75
2021/05/28 06:50:23;;;;;;;0.70;0.70;;;12.60;99.90;;;;;;4975735;28;20615;-75
2021/05/28 06:52:50;;;;;;;0.60;0.60;;;12.70;99.90;;;;;;4975422;28;20662;-75
2021/05/28 06:55:18;;;;;;;0.68;0.68;;;12.70;99.90;;;;;;4974964;28;20221;-76
2021/05/28 06:57:46;;;;;;;0.50;0.50;;;12.80;99.90;;;;;;4975249;28;20299;-77
2021/05/28 07:00:13;;;;;;;0.60;0.60;;;12.90;99.90;;;;;;4975375;28;20216;-76
2021/05/28 07:02:41;;;;;;;0.50;0.50;;;12.90;99.90;;;;;;4975178;28;20205;-75
2021/05/28 07:05:11;;;;;;;0.60;0.60;;;12.90;99.90;;;;;;4964457;28;20233;-76
2021/05/28 07:07:39;;;;;;;0.70;0.70;;;13.00;99.90;;;;;;4964308;28;20190;-75
2021/05/28 07:10:08;;;;;;;0.70;0.70;;;13.10;99.90;;;;;;4965098;28;20197;-75
2021/05/28 07:12:35;;;;;;;0.50;0.50;;;13.30;99.90;;;;;;4965627;28;20260;-77
2021/05/28 07:15:04;;;;;;;0.70;0.70;;;13.40;99.90;;;;;;4965547;28;20239;-76
2021/05/28 07:17:32;;;;;;;0.60;0.60;;;13.30;99.90;;;;;;4964815;28;20765;-74
2021/05/28 07:19:59;;;;;;;0.60;0.60;;;13.40;99.90;;;;;;4958951;28;20651;-74
2021/05/28 07:22:27;;;;;;;0.60;0.60;;;13.50;99.90;;;;;;4964658;28;20606;-75
2021/05/28 07:24:55;;;;;;;0.60;0.60;;;13.50;99.90;;;;;;4965662;28;20267;-74
2021/05/28 07:27:22;;;;;;;0.60;0.60;;;13.50;99.90;;;;;;4964600;28;20257;-74
2021/05/28 07:29:49;;;;;;;0.60;0.60;;;13.60;99.90;;;;;;4963713;28;20198;-74
2021/05/28 07:32:17;;;;;;;0.60;0.60;;;13.60;99.90;;;;;;4965419;28;20264;-74
2021/05/28 07:34:44;;;;;;;0.60;0.60;;;13.90;99.90;;;;;;4964412;28;20594;-75
2021/05/28 07:37:12;;;;;;;0.60;0.60;;;14.00;99.90;;;;;;4964546;28;20228;-74
2021/05/28 07:39:40;;;;;;;0.60;0.60;;;14.00;99.90;;;;;;4964259;28;20241;-74
2021/05/28 07:42:08;;;;;;;0.60;0.60;;;14.10;99.90;;;;;;4963531;28;20249;-74
2021/05/28 07:44:35;;;;;;;0.60;0.60;;;14.00;99.90;;;;;;4964756;28;20268;-74
2021/05/28 07:47:03;;;;;;;0.50;0.50;;;14.20;99.90;;;;;;4962510;28;20714;-75
2021/05/28 07:49:30;;;;;;;0.70;0.70;;;14.20;99.90;;;;;;4964422;28;20201;-75
2021/05/28 07:51:58;;;;;;;0.70;0.70;;;14.20;99.90;;;;;;4962013;28;20244;-74
2021/05/28 07:54:25;;;;;;;0.63;0.63;;;14.60;99.90;;;;;;4964751;28;20276;-76
2021/05/28 07:56:53;;;;;;;0.60;0.60;;;14.30;99.90;;;;;;4963569;28;20224;-75
2021/05/28 07:59:21;;;;;;;0.60;0.60;;;14.30;99.90;;;;;;4965711;28;20208;-74
2021/05/28 08:01:48;;;;;;;0.50;0.50;;;14.40;99.90;;;;;;4965085;28;20205;-74
2021/05/28 08:04:15;;;;;;;0.60;0.60;;;14.30;99.90;;;;;;4962324;28;20216;-74
2021/05/28 08:06:43;;;;;;;0.68;0.68;;;14.30;99.90;;;;;;4964624;28;20255;-75
2021/05/28 08:09:11;;;;;;;0.50;0.50;;;14.30;99.90;;;;;;4963077;28;20543;-74
2021/05/28 08:11:38;;;;;;;0.60;0.60;;;14.10;99.90;;;;;;4964796;28;20693;-74
2021/05/28 08:14:06;;;;;;;0.60;0.60;;;14.10;99.90;;;;;;4964280;28;20259;-74
2021/05/28 08:16:34;;;;;;;0.50;0.50;;;14.00;99.90;;;;;;4962237;28;20205;-75
2021/05/28 08:19:02;;;;;;;0.60;0.60;;;14.00;99.90;;;;;;4962367;28;20720;-74
2021/05/28 08:21:29;;;;;;;0.70;0.70;;;13.90;99.90;;;;;;4962918;28;20251;-75
2021/05/28 08:23:57;;;;;;;0.70;0.70;;;13.70;99.90;;;;;;4963365;28;20220;-74
2021/05/28 08:26:24;;;;;;;0.60;0.60;;;13.70;99.90;;;;;;4962933;28;20209;-74
2021/05/28 08:28:51;;;;;;;0.70;0.70;;;13.90;99.90;;;;;;4963043;28;20197;-74
2021/05/28 08:31:20;;;;;;;0.60;0.60;;;14.40;99.90;;;;;;4964301;28;20252;-73
2021/05/28 08:33:48;;;;;;;0.60;0.60;;;14.50;99.90;;;;;;4962130;28;20257;-74
2021/05/28 08:36:15;;;;;;;0.60;0.60;;;14.70;99.90;;;;;;4963239;28;20198;-74
2021/05/28 08:38:43;;;;;;;0.60;0.60;;;14.80;99.90;;;;;;4963740;28;20249;-74
2021/05/28 08:41:11;;;;;;;0.60;0.60;;;14.80;99.90;;;;;;4965362;28;20209;-74
2021/05/28 08:43:41;;;;;;;0.60;0.60;;;14.50;99.90;;;;;;4961851;28;20217;-74
2021/05/28 08:46:09;;;;;;;0.60;0.60;;;14.40;99.90;;;;;;4962606;28;20196;-74
2021/05/28 08:48:38;;;;;;;0.60;0.60;;;14.60;99.90;;;;;;4964109;28;20270;-74
2021/05/28 08:51:05;;;;;;;0.60;0.60;;;14.80;99.90;;;;;;4963077;28;20625;-74
2021/05/28 08:53:33;;;;;;;0.60;0.60;;;15.00;99.90;;;;;;4963652;28;20224;-74
2021/05/28 08:56:01;;;;;;;0.60;0.60;;;15.00;99.90;;;;;;4962145;28;20202;-75
2021/05/28 08:58:28;;;;;;;0.65;0.65;;;15.10;99.90;;;;;;4966500;28;20588;-74
2021/05/28 09:00:56;;;;;;;0.60;0.60;;;15.30;99.90;;;;;;4965635;28;20192;-74
2021/05/28 09:03:25;;;;;;;0.50;0.50;;;15.50;99.90;;;;;;4961971;28;20221;-74
2021/05/28 09:05:56;;;;;;;0.43;0.43;;;15.60;99.90;;;;;;4960729;28;20212;-74
2021/05/28 09:08:25;;;;;;;0.40;0.40;;;15.70;99.90;;;;;;4964235;28;20218;-74
2021/05/28 09:10:54;;;;;;;0.50;0.50;;;15.80;99.90;;;;;;4964081;28;20247;-74
2021/05/28 09:13:26;;;;;;;0.50;0.50;;;15.90;99.90;;;;;;4970726;28;20702;-73
2021/05/28 09:16:10;;;;;;;0.57;0.57;;;15.90;99.90;;;;;;4972734;28;20204;-74
2021/05/28 09:18:45;;;;;;;0.50;0.50;;;15.80;99.90;;;;;;4971335;28;20220;-74
2021/05/28 09:21:18;;;;;;;0.40;0.40;;;15.70;99.90;;;;;;4973014;28;20208;-73
2021/05/28 09:23:46;;;;;;;0.50;0.50;;;15.70;99.90;;;;;;4972708;28;20232;-73
2021/05/28 09:26:14;;;;;;;0.60;0.60;;;15.60;99.90;;;;;;4972583;28;20242;-74
2021/05/28 09:28:43;;;;;;;0.52;0.52;;;15.50;99.90;;;;;;4969661;28;20198;-74
2021/05/28 09:31:14;;;;;;;0.50;0.50;;;15.60;99.90;;;;;;4965493;28;20742;-73
2021/05/28 09:33:44;;;;;;;0.50;0.50;;;15.60;99.90;;;;;;4952969;28;20229;-73
2021/05/28 09:36:15;;;;;;;0.50;0.50;;;15.70;99.90;;;;;;4964909;28;20196;-74
2021/05/28 09:39:01;;;;;;;0.50;0.50;;;15.80;99.90;;;;;;4955129;28;20276;-74
2021/05/28 09:41:42;;;;;;;0.60;0.60;;;15.80;99.90;;;;;;4953654;28;20292;-75
2021/05/28 09:44:16;;;;;;;0.50;0.50;;;15.60;99.90;;;;;;4958317;28;20236;-74
2021/05/28 09:47:01;;;;;;;0.50;0.50;;;15.80;99.90;;;;;;4964715;28;20248;-75
2021/05/28 09:49:30;;;;;;;0.60;0.60;;;15.90;99.90;;;;;;4969026;28;20255;-75
2021/05/28 09:52:06;;;;;;;0.50;0.50;;;15.90;99.90;;;;;;4967481;28;20196;-74
2021/05/28 09:54:34;;;;;;;0.50;0.50;;;15.80;99.90;;;;;;4965423;28;20702;-75
2021/05/28 09:57:02;;;;;;;0.50;0.50;;;15.70;99.90;;;;;;4953145;28;20259;-75
2021/05/28 09:59:44;;;;;;;0.50;0.50;;;15.80;99.90;;;;;;4961515;28;20213;-75
2021/05/28 10:02:27;;;;;;;0.50;0.50;;;15.80;99.90;;;;;;4972210;28;20211;-74
2021/05/28 10:04:56;;;;;;;0.60;0.60;;;15.90;99.90;;;;;;4972183;28;20235;-75
2021/05/28 10:07:25;;;;;;;0.50;0.50;;;16.10;99.90;;;;;;4972150;28;20248;-74
2021/05/28 10:09:54;;;;;;;0.50;0.50;;;16.30;99.90;;;;;;4972438;28;20205;-74
2021/05/28 10:12:22;;;;;;;0.40;0.40;;;16.50;99.90;;;;;;4972514;28;20215;-74
2021/05/28 10:14:51;;;;;;;0.50;0.50;;;16.50;99.90;;;;;;4975249;28;20259;-74
2021/05/28 10:17:20;;;;;;;0.40;0.40;;;16.60;99.90;;;;;;4975869;28;20287;-74
2021/05/28 10:19:48;;;;;;;0.40;0.40;;;16.70;99.90;;;;;;4975999;28;20205;-74
2021/05/28 10:22:17;;;;;;;0.50;0.50;;;16.70;99.20;;;;;;4976093;28;20205;-71
2021/05/28 10:24:46;;;;;;;0.40;0.40;;;16.70;97.80;;;;;;4972604;28;20228;-74
2021/05/28 10:27:20;;;;;;;0.40;0.40;;;16.80;97.90;;;;;;4967634;28;20196;-74
2021/05/28 10:29:50;;;;;;;0.40;0.40;;;17.00;97.10;;;;;;4974269;28;20200;-74
2021/05/28 10:32:18;;;;;;;0.40;0.40;;;17.10;96.10;;;;;;4975050;28;20205;-73
2021/05/28 10:35:10;;;;;;;0.40;0.40;;;17.00;97.20;;;;;;4974578;28;20227;-74
2021/05/28 10:37:39;;;;;;;0.40;0.40;;;16.80;97.80;;;;;;4970390;28;20200;-75
2021/05/28 10:40:28;;;;;;;0.40;0.40;;;16.80;98.60;;;;;;4975141;28;20251;-75
2021/05/28 10:43:00;;;;;;;0.50;0.50;;;15.70;99.90;;;;;;4973977;28;20204;-74
2021/05/28 10:45:57;;;;;;;0.50;0.50;;;15.70;99.90;;;;;;4968944;28;20197;-75
2021/05/28 10:49:06;;;;;;;0.50;0.50;;;14.90;99.90;;;;;;4965912;28;20205;-75
2021/05/28 10:52:03;;;;;;;0.60;0.60;;;14.40;99.90;;;;;;4965318;28;20197;-75
2021/05/28 10:54:33;;;;;;;0.60;0.60;;;14.00;99.90;;;;;;4962392;28;20260;-75
2021/05/28 10:57:34;;;;;;;0.60;0.60;;;14.00;99.90;;;;;;4955993;28;20209;-75
2021/05/28 11:00:08;;;;;;;0.70;0.70;;;14.00;99.90;;;;;;4956893;28;20655;-74
2021/05/28 11:02:54;;;;;;;0.60;0.60;;;13.70;99.90;;;;;;4955809;28;20698;-74
2021/05/28 11:05:48;;;;;;;0.70;0.70;;;13.60;99.90;;;;;;4954881;28;20674;-74
2021/05/28 11:08:45;;;;;;;0.60;0.60;;;13.60;99.90;;;;;;4954769;28;20266;-73
2021/05/28 11:11:57;;;;;;;0.70;0.70;;;13.60;99.90;;;;;;4940513;28;20501;-73
2021/05/28 11:14:28;;;;;;;0.50;0.50;;;13.50;99.90;;;;;;4954161;28;20224;-73
2021/05/28 11:17:18;;;;;;;0.60;0.60;;;13.70;99.90;;;;;;4956194;28;20205;-73
2021/05/28 11:19:56;;;;;;;0.50;0.50;;;14.10;99.90;;;;;;4968764;28;20380;-75
2021/05/28 11:22:35;;;;;;;0.60;0.60;;;14.30;99.90;;;;;;4974979;28;20266;-74
2021/05/28 11:25:06;;;;;;;0.50;0.50;;;14.30;99.90;;;;;;4973928;28;20248;-75
2021/05/28 11:27:58;;;;;;;0.60;0.60;;;14.50;99.90;;;;;;4974641;28;20208;-74
2021/05/28 11:30:29;;;;;;;0.60;0.60;;;14.90;99.90;;;;;;4971111;28;20201;-74
2021/05/28 11:32:56;;;;;;;0.40;0.40;;;15.20;99.90;;;;;;4962254;28;20248;-74
2021/05/28 11:35:28;;;;;;;0.60;0.60;;;15.00;99.90;;;;;;4964155;28;20200;-74
2021/05/28 11:37:57;;;;;;;0.50;0.50;;;15.00;99.90;;;;;;4962594;28;20202;-74
2021/05/28 11:40:27;;;;;;;0.50;0.50;;;15.20;99.90;;;;;;4972005;28;20196;-75
2021/05/28 11:43:04;;;;;;;0.50;0.50;;;15.20;99.90;;;;;;4961653;28;20283;-74
2021/05/28 11:45:32;;;;;;;0.50;0.50;;;15.40;99.90;;;;;;4969598;28;20608;-74
2021/05/28 11:48:00;;;;;;;0.57;0.57;;;15.70;99.90;;;;;;4962175;28;20201;-73
2021/05/28 11:50:39;;;;;;;0.50;0.50;;;15.80;99.90;;;;;;4958955;28;20231;-73
2021/05/28 11:53:08;;;;;;;0.40;0.40;;;15.90;99.90;;;;;;4964053;28;20658;-73
2021/05/28 11:55:44;;;;;;;0.50;0.50;;;16.00;99.90;;;;;;4955102;28;20248;-73
2021/05/28 11:58:13;;;;;;;0.40;0.40;;;16.10;99.90;;;;;;4973510;28;20274;-73
2021/05/28 12:00:42;;;;;;;0.50;0.50;;;16.20;99.90;;;;;;4973731;28;20616;-73
2021/05/28 12:03:10;;;;;;;0.50;0.50;;;16.10;99.90;;;;;;4957621;28;20202;-72
2021/05/28 12:05:40;;;;;;;0.40;0.40;;;16.20;99.90;;;;;;4962269;28;20204;-73
2021/05/28 12:08:18;;;;;;;0.50;0.50;;;16.00;99.90;;;;;;4972282;28;20196;-73
2021/05/28 12:10:48;;;;;;;0.40;0.40;;;16.00;99.90;;;;;;4968056;28;20204;-74
2021/05/28 12:13:16;;;;;;;0.50;0.50;;;16.00;99.90;;;;;;4973785;28;20275;-74
2021/05/28 12:15:47;;;;;;;0.40;0.40;;;16.10;99.90;;;;;;4971190;28;20749;-72
2021/05/28 12:18:16;;;;;;;0.50;0.50;;;16.30;99.90;;;;;;4954652;29;20221;-74
2021/05/28 12:20:46;;;;;;;0.50;0.50;;;16.20;99.90;;;;;;4971802;28;20673;-74
2021/05/28 12:23:17;;;;;;;0.40;0.40;;;16.30;99.90;;;;;;4961049;28;20233;-74
2021/05/28 12:25:46;;;;;;;0.50;0.50;;;16.30;99.90;;;;;;4964666;28;20623;-76
2021/05/28 12:28:19;;;;;;;0.50;0.50;;;16.50;99.90;;;;;;4963717;28;20205;-75
2021/05/28 12:30:50;;;;;;;0.40;0.40;;;16.70;99.90;;;;;;4966647;28;20574;-76
2021/05/28 12:33:20;;;;;;;0.50;0.50;;;16.80;99.90;;;;;;4973714;28;20279;-76
2021/05/28 12:35:53;;;;;;;0.50;0.50;;;16.80;99.90;;;;;;4973102;28;20209;-76
2021/05/28 12:38:23;;;;;;;0.50;0.50;;;16.80;99.60;;;;;;4973341;28;20224;-75
2021/05/28 12:40:52;;;;;;;0.40;0.40;;;17.20;99.60;;;;;;4973656;28;20267;-74
2021/05/28 12:43:23;;;;;;;0.40;0.40;;;17.40;99.50;;;;;;4973269;28;20229;-76
2021/05/28 12:45:51;;;;;;;0.40;0.40;;;17.70;98.90;;;;;;4973561;28;20259;-76
2021/05/28 12:48:19;;;;;;;0.40;0.40;;;18.10;98.10;;;;;;4973474;28;20670;-76
2021/05/28 12:50:49;;;;;;;0.40;0.40;;;18.40;97.80;;;;;;4973194;28;20272;-74
2021/05/28 12:53:19;;;;;;;0.40;0.40;;;18.60;95.50;;;;;;4973370;28;20287;-74
2021/05/28 12:55:52;;;;;;;0.38;0.38;;;19.00;95.30;;;;;;4973173;28;20208;-76
2021/05/28 12:58:22;;;;;;;0.40;0.40;;;19.00;94.40;;;;;;4973148;28;20251;-74
2021/05/28 13:00:55;;;;;;;0.40;0.40;;;18.80;93.60;;;;;;4973336;28;20296;-75
2021/05/28 13:03:49;;;;;;;0.30;0.30;;;18.50;93.20;;;;;;4973040;28;20228;-75
2021/05/28 13:06:31;;;;;;;0.30;0.30;;;18.40;94.00;;;;;;4959355;28;20229;-76
2021/05/28 13:09:13;;;;;;;0.40;0.40;;;18.30;94.30;;;;;;4974063;28;20201;-76
2021/05/28 13:12:07;;;;;;;0.50;0.50;;;17.90;91.90;;;;;;4972905;28;20215;-76
2021/05/28 13:14:37;;;;;;;0.50;0.50;;;17.40;93.10;;;;;;4973363;28;20256;-75
2021/05/28 13:17:22;;;;;;;0.40;0.40;;;17.10;94.90;;;;;;4973333;28;20259;-73
2021/05/28 13:19:51;;;;;;;0.52;0.52;;;16.50;99.90;;;;;;4973405;28;20256;-77
2021/05/28 13:22:33;;;;;;;0.57;0.57;;;15.60;99.90;;;;;;4973288;28;20209;-74
2021/05/28 13:25:22;;;;;;;0.50;0.50;;;15.30;99.90;;;;;;4972765;28;20771;-75
2021/05/28 13:28:01;;;;;;;0.50;0.50;;;14.90;99.90;;;;;;4972853;28;20205;-75
2021/05/28 13:30:32;;;;;;;0.52;0.52;;;14.80;99.90;;;;;;4971269;28;20551;-75
2021/05/28 13:33:13;;;;;;;0.60;0.60;;;15.30;99.90;;;;;;4972397;28;20259;-75
2021/05/28 13:35:41;;;;;;;0.60;0.60;;;15.00;99.90;;;;;;4972411;28;20209;-75
2021/05/28 13:38:08;;;;;;;0.50;0.50;;;15.30;99.90;;;;;;4972879;28;20255;-75
2021/05/28 13:40:36;;;;;;;0.40;0.40;;;15.50;99.90;;;;;;4972983;28;20315;-75
2021/05/28 13:43:04;;;;;;;0.60;0.60;;;16.00;99.90;;;;;;4972797;28;20259;-75
2021/05/28 13:45:32;;;;;;;0.50;0.50;;;16.00;99.90;;;;;;4972970;28;20208;-74
2021/05/28 13:47:59;;;;;;;0.50;0.50;;;16.20;99.90;;;;;;4973390;28;20201;-74
2021/05/28 13:50:35;;;;;;;0.50;0.50;;;16.20;99.90;;;;;;4976934;28;20691;-74
2021/05/28 13:53:04;;;;;;;0.40;0.40;;;16.40;99.90;;;;;;4976677;28;20232;-73
2021/05/28 13:55:33;;;;;;;0.40;0.40;;;16.70;99.90;;;;;;4976703;28;20209;-72
2021/05/28 13:58:01;;;;;;;0.50;0.50;;;17.20;99.90;;;;;;4976821;28;20212;-72
2021/05/28 14:00:28;;;;;;;0.40;0.40;;;17.50;99.90;;;;;;4976573;28;20275;-72
2021/05/28 14:02:56;;;;;;;0.40;0.40;;;17.50;99.90;;;;;;4976496;28;20263;-72
2021/05/28 14:05:23;;;;;;;0.40;0.40;;;17.70;98.90;;;;;;4976553;28;20204;-72
2021/05/28 14:07:53;;;;;;;0.40;0.40;;;17.80;98.90;;;;;;4976530;28;20200;-72
2021/05/28 14:10:21;;;;;;;0.40;0.40;;;18.00;99.70;;;;;;4976577;28;20255;-72
2021/05/28 14:12:49;;;;;;;0.30;0.30;;;17.90;97.30;;;;;;4976277;28;20215;-72
2021/05/28 14:15:19;;;;;;;0.50;0.50;;;17.80;98.20;;;;;;4976094;28;20229;-72
2021/05/28 14:17:51;;;;;;;0.30;0.30;;;17.80;97.90;;;;;;4976279;28;20212;-72
2021/05/28 14:20:22;;;;;;;0.40;0.40;;;17.70;99.30;;;;;;4976224;28;20315;-72
2021/05/28 14:22:51;;;;;;;0.40;0.40;;;17.60;98.70;;;;;;4976060;28;20205;-72
2021/05/28 14:25:20;;;;;;;0.40;0.40;;;17.70;98.40;;;;;;4975866;28;20268;-72
2021/05/28 14:27:48;;;;;;;0.40;0.40;;;17.60;98.10;;;;;;4976168;28;20209;-72
2021/05/28 14:30:15;;;;;;;0.50;0.50;;;17.60;98.40;;;;;;4976057;28;20256;-72
2021/05/28 14:32:46;;;;;;;0.40;0.40;;;17.60;99.20;;;;;;4976020;28;20212;-72
2021/05/28 14:35:14;;;;;;;0.40;0.40;;;17.80;99.90;;;;;;4975635;28;20657;-72
2021/05/28 14:37:42;;;;;;;0.38;0.38;;;17.80;97.30;;;;;;4975965;28;20240;-72
2021/05/28 14:40:14;;;;;;;0.50;0.50;;;17.80;98.20;;;;;;4975733;28;20224;-71
2021/05/28 14:42:41;;;;;;;0.40;0.40;;;17.80;96.00;;;;;;4975985;28;20205;-71
2021/05/28 14:45:11;;;;;;;0.40;0.40;;;17.80;96.90;;;;;;4975543;28;20224;-72
2021/05/28 14:47:39;;;;;;;0.40;0.40;;;17.70;95.10;;;;;;4975482;28;20208;-71
2021/05/28 14:50:08;;;;;;;0.40;0.40;;;17.60;95.10;;;;;;4975610;28;20205;-71
2021/05/28 14:52:36;;;;;;;0.40;0.40;;;17.70;97.80;;;;;;4975597;28;20260;-71
2021/05/28 14:55:05;;;;;;;0.40;0.40;;;17.60;96.80;;;;;;4975476;28;20714;-72
2021/05/28 14:57:33;;;;;;;0.30;0.30;;;17.60;96.90;;;;;;4975394;28;20264;-71
2021/05/28 15:00:01;;;;;;;0.40;0.40;;;17.70;98.60;;;;;;4975081;28;20316;-71
2021/05/28 15:02:28;;;;;;;0.40;0.40;;;17.60;97.00;;;;;;4975484;28;20201;-72
2021/05/28 15:04:55;;;;;;;0.30;0.30;;;17.60;99.00;;;;;;4975454;28;20656;-72
2021/05/28 15:07:24;;;;;;;0.40;0.40;;;17.60;97.40;;;;;;4975054;28;20720;-71
2021/05/28 15:09:52;;;;;;;0.40;0.40;;;17.70;97.40;;;;;;4975576;28;20248;-72
2021/05/28 15:12:19;;;;;;;0.40;0.40;;;17.80;98.70;;;;;;4975473;28;20204;-72
2021/05/28 15:14:48;;;;;;;0.30;0.30;;;17.90;98.40;;;;;;4975069;28;20323;-72
2021/05/28 15:17:15;;;;;;;0.30;0.30;;;17.90;96.90;;;;;;4975234;28;20256;-72
2021/05/28 15:19:43;;;;;;;0.40;0.40;;;17.80;99.90;;;;;;4975259;28;20713;-72
2021/05/28 15:22:10;;;;;;;0.40;0.40;;;17.80;95.90;;;;;;4975197;28;20728;-72
2021/05/28 15:24:37;;;;;;;0.30;0.30;;;17.80;95.70;;;;;;4974987;28;20240;-72
2021/05/28 15:27:06;;;;;;;0.40;0.40;;;17.70;96.60;;;;;;4974789;28;20244;-72
2021/05/28 15:29:33;;;;;;;0.30;0.30;;;17.60;96.50;;;;;;4975328;28;20240;-72
2021/05/28 15:32:01;;;;;;;0.50;0.50;;;17.50;99.90;;;;;;4975338;28;20247;-73
2021/05/28 15:34:29;;;;;;;0.50;0.50;;;16.60;99.90;;;;;;4974781;28;20259;-73
2021/05/28 15:36:56;;;;;;;0.50;0.50;;;15.40;99.90;;;;;;4974613;28;20216;-74
2021/05/28 15:39:23;;;;;;;0.60;0.60;;;15.10;99.90;;;;;;4974589;28;20713;-73
2021/05/28 15:41:51;;;;;;;0.57;0.57;;;14.70;99.90;;;;;;4974947;28;20255;-74
2021/05/28 15:44:18;;;;;;;0.50;0.50;;;14.80;99.90;;;;;;4974490;28;20307;-74
2021/05/28 15:46:46;;;;;;;0.60;0.60;;;14.80;99.90;;;;;;4974618;28;20205;-74
2021/05/28 15:49:15;;;;;;;0.50;0.50;;;15.00;99.90;;;;;;4974837;28;20215;-74
2021/05/28 15:51:42;;;;;;;0.40;0.40;;;15.60;99.90;;;;;;4974679;28;20263;-74
2021/05/28 15:54:09;;;;;;;0.40;0.40;;;15.70;99.90;;;;;;4974316;28;20228;-74
2021/05/28 15:56:37;;;;;;;0.60;0.60;;;15.80;99.90;;;;;;4974483;28;20247;-74
2021/05/28 15:59:04;;;;;;;0.50;0.50;;;16.00;99.90;;;;;;4974430;28;20200;-73
2021/05/28 16:01:51;;;;;;;0.50;0.50;;;16.10;99.90;;;;;;4974579;28;20211;-74
2021/05/28 16:04:20;;;;;;;0.40;0.40;;;16.50;99.90;;;;;;4974224;28;20652;-74
2021/05/28 16:06:47;;;;;;;0.40;0.40;;;16.70;99.90;;;;;;4974055;28;20663;-74
2021/05/28 16:09:14;;;;;;;0.40;0.40;;;16.70;99.90;;;;;;4974168;28;20735;-74
2021/05/28 16:11:42;;;;;;;0.40;0.40;;;16.80;99.90;;;;;;4973476;28;20208;-74
2021/05/28 16:14:11;;;;;;;0.40;0.40;;;16.90;99.90;;;;;;4974065;28;20272;-74
2021/05/28 16:16:39;;;;;;;0.50;0.50;;;17.00;99.90;;;;;;4973931;28;20243;-74
2021/05/28 16:19:06;;;;;;;0.30;0.30;;;17.00;99.90;;;;;;4974111;28;20661;-73
2021/05/28 16:21:34;;;;;;;0.40;0.40;;;17.10;99.90;;;;;;4974843;28;20279;-73
2021/05/28 16:24:02;;;;;;;0.40;0.40;;;17.00;99.90;;;;;;4975350;28;20233;-73
2021/05/28 16:26:29;;;;;;;0.40;0.40;;;17.00;99.90;;;;;;4974591;28;20259;-72
2021/05/28 16:28:56;;;;;;;0.50;0.50;;;16.90;99.90;;;;;;4974229;28;20242;-74
2021/05/28 16:31:24;;;;;;;0.40;0.40;;;16.70;99.90;;;;;;4973913;28;20869;-73
2021/05/28 16:33:51;;;;;;;0.40;0.40;;;16.50;99.90;;;;;;4973630;28;20230;-73
2021/05/28 16:36:19;;;;;;;0.50;0.50;;;16.30;99.90;;;;;;4973697;28;20204;-73
2021/05/28 16:38:47;;;;;;;0.40;0.40;;;15.80;99.90;;;;;;4973664;28;20240;-73
2021/05/28 16:41:15;;;;;;;0.50;0.50;;;15.20;99.90;;;;;;4973635;28;20313;-74
2021/05/28 16:43:42;;;;;;;0.50;0.50;;;14.50;99.90;;;;;;4973539;28;20224;-74
2021/05/28 16:46:09;;;;;;;0.40;0.40;;;13.80;99.90;;;;;;4973675;28;20252;-74
2021/05/28 16:48:37;;;;;;;0.50;0.50;;;13.70;99.90;;;;;;4973442;28;20215;-74
2021/05/28 16:51:04;;;;;;;0.50;0.50;;;14.10;99.90;;;;;;4973505;28;20236;-74
2021/05/28 16:53:33;;;;;;;0.55;0.55;;;13.50;99.90;;;;;;4973464;28;20256;-74
2021/05/28 16:56:01;;;;;;;0.70;0.70;;;13.70;99.90;;;;;;4973169;28;20237;-74
2021/05/28 16:58:29;;;;;;;0.98;0.98;;;13.70;99.90;;;;;;4973491;28;20312;-74
2021/05/28 17:00:57;;;;;;;0.70;0.70;;;14.50;99.90;;;;;;4973284;28;20279;-74
2021/05/28 17:03:24;;;;;;;0.60;0.60;;;14.40;99.90;;;;;;4973447;28;20311;-75
2021/05/28 17:05:52;;;;;;;0.60;0.60;;;15.30;99.90;;;;;;4973263;28;20209;-75
2021/05/28 17:08:19;;;;;;;0.90;0.90;;;15.40;99.90;;;;;;4973389;28;20204;-75
2021/05/28 17:10:47;;;;;;;0.60;0.60;;;16.70;99.90;;;;;;4973419;28;20200;-75
2021/05/28 17:13:19;;;;;;;0.70;0.70;;;17.70;99.90;;;;;;4973220;28;20732;-75
2021/05/28 17:15:48;;;;;;;1.00;1.00;;;18.00;99.90;;;;;;4972965;28;20237;-75